createdAt,value
2017-01-29T00:00:10.145Z,49.94
2017-01-29T00:00:35.739Z,49.94
2017-01-29T00:01:01.332Z,50.04
2017-01-29T05:00:43.032Z,49.55
2017-01-29T05:01:08.732Z,49.36
2017-01-29T05:01:34.409Z,49.55
2017-01-29T05:02:00.025Z,49.55
2017-01-29T05:02:25.619Z,49.55
2017-01-29T05:03:39.031Z,49.46
2017-01-29T05:04:04.603Z,49.65
2017-01-29T05:04:30.174Z,49.65
2017-01-29T05:04:55.787Z,49.55
2017-01-29T05:05:21.383Z,49.55
2017-01-29T05:05:47.015Z,49.36
2017-01-29T05:06:12.636Z,49.65
2017-01-29T05:06:38.213Z,49.46
2017-01-29T05:07:03.858Z,49.65
2017-01-29T05:07:29.486Z,49.46
2017-01-29T05:07:55.031Z,49.65
2017-01-29T05:08:20.773Z,49.65
2017-01-29T05:08:46.408Z,49.55
2017-01-29T05:09:12.197Z,49.55
2017-01-29T05:09:37.848Z,49.65
2017-01-29T05:10:03.406Z,49.46
2017-01-29T05:10:29.072Z,49.65
2017-01-29T05:10:54.643Z,49.46
2017-01-29T05:11:20.195Z,49.65
2017-01-29T05:11:45.903Z,49.65
2017-01-29T05:12:11.479Z,49.65
2017-01-29T05:12:37.059Z,49.65
2017-01-29T05:13:02.730Z,49.65
2017-01-29T05:13:28.333Z,49.46
2017-01-29T05:13:54.115Z,49.36
2017-01-29T05:14:19.762Z,49.36
2017-01-29T05:14:45.336Z,49.46
2017-01-29T05:15:10.910Z,49.36
2017-01-29T05:15:36.495Z,49.55
2017-01-29T05:16:02.144Z,49.55
2017-01-29T05:16:27.834Z,49.46
2017-01-29T05:16:53.399Z,49.55
2017-01-29T05:17:19.274Z,49.46
2017-01-29T05:17:44.984Z,49.36
2017-01-29T05:18:10.569Z,49.55
2017-01-29T05:18:36.150Z,49.46
2017-01-29T05:19:01.933Z,49.55
2017-01-29T05:19:27.480Z,49.46
2017-01-29T05:19:53.072Z,49.55
2017-01-29T05:20:18.626Z,49.55
2017-01-29T05:20:44.261Z,49.48
2017-01-29T05:21:09.909Z,49.36
2017-01-29T05:21:35.490Z,49.46
2017-01-29T05:22:01.087Z,49.55
2017-01-29T05:22:26.643Z,49.55
2017-01-29T05:22:52.231Z,49.36
2017-01-29T05:23:17.877Z,49.36
2017-01-29T05:23:43.430Z,49.36
2017-01-29T05:24:09.952Z,49.27
2017-01-29T05:24:35.550Z,49.46
2017-01-29T05:25:01.154Z,49.55
2017-01-29T05:25:26.713Z,49.46
2017-01-29T05:25:52.296Z,49.46
2017-01-29T05:26:17.894Z,49.55
2017-01-29T05:26:43.433Z,49.74
2017-01-29T05:27:08.992Z,49.46
2017-01-29T05:27:34.583Z,49.48
2017-01-29T05:28:00.241Z,49.27
2017-01-29T05:28:25.826Z,49.55
2017-01-29T05:28:51.395Z,49.27
2017-01-29T05:29:17.064Z,49.58
2017-01-29T05:29:42.586Z,49.36
2017-01-29T05:30:08.285Z,49.1
2017-01-29T05:30:33.934Z,49.94
2017-01-29T05:30:59.408Z,49.84
2017-01-29T05:31:25.081Z,49.65
2017-01-29T05:31:50.704Z,49.36
2017-01-29T05:32:16.377Z,49.77
2017-01-29T05:32:42.114Z,49.74
2017-01-29T05:33:07.671Z,49.68
2017-01-29T05:33:33.361Z,49.27
2017-01-29T05:33:59.003Z,49.27
2017-01-29T05:34:24.591Z,49.84
2017-01-29T05:34:50.257Z,49.55
2017-01-29T05:35:15.835Z,49.27
2017-01-29T05:35:41.483Z,49.46
2017-01-29T05:36:07.115Z,49.74
2017-01-29T05:36:32.673Z,49.07
2017-01-29T05:36:58.307Z,49.84
2017-01-29T05:37:24.045Z,49.46
2017-01-29T05:37:49.803Z,49.17
2017-01-29T05:38:15.531Z,49.58
2017-01-29T05:38:41.306Z,49.36
2017-01-29T05:39:06.869Z,49.84
2017-01-29T05:39:32.488Z,49.55
2017-01-29T05:39:58.091Z,49.46
2017-01-29T05:40:23.689Z,49.27
2017-01-29T05:40:49.326Z,49.46
2017-01-29T05:41:14.889Z,49.55
2017-01-29T05:41:40.512Z,49.65
2017-01-29T05:42:06.232Z,49.55
2017-01-29T05:42:31.809Z,49.94
2017-01-29T05:42:57.485Z,49.94
2017-01-29T05:43:23.150Z,49.55
2017-01-29T05:43:48.706Z,49.17
2017-01-29T05:44:14.378Z,49.36
2017-01-29T05:44:39.939Z,49.19
2017-01-29T05:45:05.602Z,49.55
2017-01-29T05:45:31.204Z,49.55
2017-01-29T05:45:56.768Z,49.84
2017-01-29T05:46:22.452Z,49.07
2017-01-29T05:46:48.143Z,49.27
2017-01-29T05:47:13.695Z,49.17
2017-01-29T05:47:39.335Z,49.17
2017-01-29T05:48:04.934Z,49.55
2017-01-29T05:48:30.561Z,49.74
2017-01-29T05:48:56.240Z,49.74
2017-01-29T05:49:21.806Z,49.17
2017-01-29T05:49:47.601Z,49.36
2017-01-29T05:50:14.232Z,49.36
2017-01-29T05:50:39.805Z,49.36
2017-01-29T05:51:05.377Z,49.17
2017-01-29T05:51:30.949Z,49.07
2017-01-29T05:51:56.623Z,49.19
2017-01-29T05:52:22.747Z,49.36
2017-01-29T05:52:48.355Z,49.46
2017-01-29T05:53:13.950Z,49.19
2017-01-29T05:53:39.610Z,49.36
2017-01-29T05:54:05.278Z,49.46
2017-01-29T05:54:30.730Z,49.55
2017-01-29T05:54:56.307Z,49.55
2017-01-29T05:55:21.869Z,49.55
2017-01-29T05:55:47.497Z,49.36
2017-01-29T05:56:13.087Z,49.55
2017-01-29T05:56:38.957Z,49.55
2017-01-29T05:57:04.578Z,49.46
2017-01-29T05:57:30.136Z,49.55
2017-01-29T05:57:55.786Z,49.46
2017-01-29T05:58:21.402Z,49.36
2017-01-29T05:58:46.945Z,49.46
2017-01-29T05:59:12.513Z,49.46
2017-01-29T05:59:38.056Z,49.46
2017-01-29T06:00:03.733Z,49.46
2017-01-29T06:00:29.318Z,49.46
2017-01-29T06:00:54.933Z,49.46
2017-01-29T06:01:20.558Z,49.55
2017-01-29T06:01:46.114Z,49.38
2017-01-29T06:02:11.746Z,49.46
2017-01-29T06:02:37.385Z,49.46
2017-01-29T06:03:03.135Z,49.65
2017-01-29T06:03:28.795Z,49.65
2017-01-29T06:03:54.415Z,49.65
2017-01-29T06:04:20.017Z,49.36
2017-01-29T06:04:45.636Z,49.36
2017-01-29T06:05:11.198Z,49.65
2017-01-29T06:05:36.806Z,49.65
2017-01-29T06:06:02.484Z,49.65
2017-01-29T06:06:28.069Z,49.55
2017-01-29T06:06:53.731Z,49.65
2017-01-29T06:07:19.297Z,49.55
2017-01-29T06:07:46.515Z,49.55
2017-01-29T06:08:12.116Z,49.65
2017-01-29T06:08:37.754Z,49.65
2017-01-29T06:09:03.335Z,49.46
2017-01-29T06:09:28.994Z,49.55
2017-01-29T06:09:54.695Z,49.55
2017-01-29T06:10:20.273Z,49.46
2017-01-29T06:10:45.917Z,49.58
2017-01-29T06:11:11.550Z,49.65
2017-01-29T06:11:37.165Z,49.46
2017-01-29T06:12:02.715Z,49.46
2017-01-29T06:12:28.275Z,49.65
2017-01-29T06:12:53.940Z,49.55
2017-01-29T06:13:19.650Z,49.36
2017-01-29T06:13:45.234Z,49.36
2017-01-29T06:14:10.838Z,49.46
2017-01-29T06:14:36.387Z,49.55
2017-01-29T06:15:02.123Z,49.36
2017-01-29T06:15:27.744Z,49.36
2017-01-29T06:15:53.304Z,49.46
2017-01-29T06:16:19.023Z,49.46
2017-01-29T06:16:44.714Z,49.46
2017-01-29T06:17:10.270Z,49.55
2017-01-29T06:17:35.904Z,49.46
2017-01-29T06:18:01.472Z,49.48
2017-01-29T06:18:27.135Z,49.55
2017-01-29T06:18:52.678Z,49.46
2017-01-29T06:19:18.253Z,49.36
2017-01-29T06:19:43.921Z,49.48
2017-01-29T06:20:09.481Z,49.55
2017-01-29T06:20:35.116Z,49.65
2017-01-29T06:21:00.757Z,49.46
2017-01-29T06:21:26.369Z,49.48
2017-01-29T06:21:51.990Z,49.46
2017-01-29T06:22:17.765Z,49.46
2017-01-29T06:22:43.367Z,49.38
2017-01-29T06:23:08.998Z,49.36
2017-01-29T06:23:34.560Z,49.46
2017-01-29T06:24:00.780Z,49.46
2017-01-29T06:24:26.393Z,49.46
2017-01-29T06:24:52.029Z,49.46
2017-01-29T06:25:17.597Z,49.46
2017-01-29T06:25:43.247Z,49.55
2017-01-29T06:26:08.895Z,49.46
2017-01-29T06:26:34.442Z,49.46
2017-01-29T06:27:00.075Z,49.74
2017-01-29T06:27:25.641Z,49.65
2017-01-29T06:27:51.270Z,49.29
2017-01-29T06:28:16.961Z,49.55
2017-01-29T06:28:42.497Z,49.36
2017-01-29T06:29:08.162Z,49.48
2017-01-29T06:29:33.801Z,49.27
2017-01-29T06:29:59.389Z,48.97
2017-01-29T06:30:25.102Z,49.55
2017-01-29T06:30:51.353Z,49.65
2017-01-29T06:31:16.996Z,49.68
2017-01-29T06:31:42.534Z,50.04
2017-01-29T06:32:08.249Z,49.19
2017-01-29T06:32:33.901Z,49.55
2017-01-29T06:32:59.499Z,49.87
2017-01-29T06:33:25.164Z,49.74
2017-01-29T06:33:50.733Z,49.55
2017-01-29T06:34:16.344Z,49.46
2017-01-29T06:34:41.998Z,49.58
2017-01-29T06:35:07.552Z,49.68
2017-01-29T06:35:33.174Z,49.46
2017-01-29T06:35:58.733Z,49.36
2017-01-29T06:36:25.258Z,49.94
2017-01-29T06:36:50.799Z,49.27
2017-01-29T06:37:16.458Z,49.65
2017-01-29T06:37:42.079Z,48.97
2017-01-29T06:38:07.629Z,49.46
2017-01-29T06:38:33.316Z,49.55
2017-01-29T06:38:58.861Z,49.65
2017-01-29T06:39:24.434Z,49.84
2017-01-29T06:39:50.129Z,49.07
2017-01-29T06:40:15.793Z,49.46
2017-01-29T06:40:41.429Z,49.84
2017-01-29T06:41:07.002Z,49.07
2017-01-29T06:41:32.554Z,49.55
2017-01-29T06:41:58.160Z,49.94
2017-01-29T06:42:23.734Z,49.84
2017-01-29T06:42:49.350Z,49.38
2017-01-29T06:43:15.215Z,49.55
2017-01-29T06:43:40.861Z,49.55
2017-01-29T06:44:06.480Z,49.55
2017-01-29T06:44:32.088Z,49.55
2017-01-29T06:44:57.761Z,49.68
2017-01-29T06:45:23.440Z,49.65
2017-01-29T06:45:49.093Z,48.97
2017-01-29T06:46:14.649Z,49.65
2017-01-29T06:46:40.257Z,49.07
2017-01-29T06:47:05.811Z,49.46
2017-01-29T06:47:31.447Z,49.58
2017-01-29T06:47:57.020Z,49.65
2017-01-29T06:48:22.555Z,49.27
2017-01-29T06:48:48.218Z,49.27
2017-01-29T06:49:13.823Z,49.48
2017-01-29T06:49:39.501Z,49.27
2017-01-29T06:50:05.219Z,49.46
2017-01-29T06:50:30.773Z,49.58
2017-01-29T06:50:56.436Z,49.17
2017-01-29T06:51:22.025Z,49.36
2017-01-29T06:51:47.619Z,49.27
2017-01-29T06:52:13.297Z,49.36
2017-01-29T06:52:38.858Z,49.36
2017-01-29T06:53:04.558Z,49.36
2017-01-29T06:53:30.275Z,49.27
2017-01-29T06:53:55.837Z,49.46
2017-01-29T06:54:21.449Z,49.46
2017-01-29T06:54:47.068Z,49.46
2017-01-29T06:55:12.665Z,49.48
2017-01-29T06:55:38.265Z,49.58
2017-01-29T06:56:03.927Z,49.27
2017-01-29T06:56:29.683Z,49.27
2017-01-29T06:56:55.277Z,49.17
2017-01-29T06:57:20.835Z,49.27
2017-01-29T06:57:46.506Z,49.46
2017-01-29T06:58:12.062Z,49.46
2017-01-29T06:58:37.696Z,49.36
2017-01-29T06:59:03.333Z,49.58
2017-01-29T06:59:28.968Z,49.36
2017-01-29T06:59:54.726Z,49.46
2017-01-29T07:00:20.350Z,49.55
2017-01-29T07:01:22.888Z,49.55
2017-01-29T07:01:48.437Z,49.27
2017-01-29T07:02:14.000Z,49.36
2017-01-29T07:02:39.683Z,49.36
2017-01-29T07:03:05.256Z,49.55
2017-01-29T07:03:30.812Z,49.36
2017-01-29T07:03:56.404Z,49.36
2017-01-29T07:04:22.671Z,49.46
2017-01-29T07:04:48.238Z,49.27
2017-01-29T07:05:14.396Z,49.38
2017-01-29T07:05:39.954Z,49.55
2017-01-29T07:06:05.655Z,49.46
2017-01-29T07:06:31.696Z,49.36
2017-01-29T07:06:57.253Z,49.36
2017-01-29T07:07:23.540Z,49.27
2017-01-29T07:07:49.121Z,49.27
2017-01-29T07:08:14.678Z,49.94
2017-01-29T07:08:40.963Z,49.84
2017-01-29T07:09:06.535Z,49.84
2017-01-29T07:09:32.646Z,50.04
2017-01-29T07:09:58.254Z,49.55
2017-01-29T07:10:24.456Z,49.55
2017-01-29T07:10:50.017Z,49.55
2017-01-29T07:11:15.581Z,49.48
2017-01-29T07:11:41.853Z,49.27
2017-01-29T07:12:07.489Z,49.27
2017-01-29T07:12:33.580Z,49.27
2017-01-29T07:12:59.151Z,49.17
2017-01-29T07:13:24.790Z,49.19
2017-01-29T07:13:50.968Z,49.17
2017-01-29T07:14:16.540Z,49.27
2017-01-29T07:14:42.833Z,49.17
2017-01-29T07:15:08.392Z,49.29
2017-01-29T07:15:34.529Z,49.27
2017-01-29T07:16:00.097Z,49.36
2017-01-29T07:16:25.683Z,49.46
2017-01-29T07:16:51.913Z,49.58
2017-01-29T07:17:17.486Z,49.55
2017-01-29T07:17:43.673Z,49.58
2017-01-29T07:18:09.231Z,49.58
2017-01-29T07:18:34.795Z,49.29
2017-01-29T07:19:00.996Z,49.17
2017-01-29T07:19:26.594Z,49.17
2017-01-29T07:19:52.828Z,49.58
2017-01-29T07:20:18.402Z,49.58
2017-01-29T07:20:44.622Z,49.29
2017-01-29T07:21:10.245Z,49.58
2017-01-29T07:21:35.804Z,49.17
2017-01-29T07:22:01.952Z,49.48
2017-01-29T07:22:27.551Z,49.38
2017-01-29T07:22:53.754Z,49.68
2017-01-29T07:23:19.340Z,49.84
2017-01-29T07:23:45.056Z,49.48
2017-01-29T07:24:11.074Z,49.58
2017-01-29T07:24:36.658Z,49.27
2017-01-29T07:25:02.968Z,49.38
2017-01-29T07:25:28.533Z,49.38
2017-01-29T07:25:54.682Z,49.48
2017-01-29T07:26:20.385Z,49.38
2017-01-29T07:26:45.967Z,49.58
2017-01-29T07:27:12.052Z,49.48
2017-01-29T07:27:37.610Z,49.19
2017-01-29T07:28:03.810Z,49.17
2017-01-29T07:28:29.382Z,49.96
2017-01-29T07:28:54.974Z,49.68
2017-01-29T07:29:21.176Z,49.27
2017-01-29T07:30:14.422Z,49.48
2017-01-29T07:30:40.000Z,49.58
2017-01-29T07:31:05.634Z,49.96
2017-01-29T07:31:31.253Z,49.48
2017-01-29T07:31:57.337Z,49.58
2017-01-29T07:32:22.991Z,49.38
2017-01-29T07:32:48.540Z,49.1
2017-01-29T07:33:14.095Z,49.29
2017-01-29T07:33:39.682Z,49.38
2017-01-29T07:34:05.236Z,49.19
2017-01-29T07:34:30.817Z,49.19
2017-01-29T07:34:56.376Z,49.38
2017-01-29T07:35:21.953Z,49.48
2017-01-29T07:35:47.520Z,49.29
2017-01-29T07:36:13.111Z,49.29
2017-01-29T07:36:38.664Z,49.48
2017-01-29T07:37:04.272Z,49.29
2017-01-29T07:37:29.948Z,49.38
2017-01-29T07:37:55.505Z,49.38
2017-01-29T07:38:21.059Z,49.29
2017-01-29T07:38:46.627Z,49.38
2017-01-29T07:39:12.296Z,49.38
2017-01-29T07:39:37.862Z,49.38
2017-01-29T07:40:03.405Z,49.38
2017-01-29T07:40:30.277Z,49.1
2017-01-29T07:40:55.392Z,49.1
2017-01-29T07:41:20.963Z,49.19
2017-01-29T07:41:46.535Z,49.29
2017-01-29T07:42:12.121Z,49.29
2017-01-29T07:42:37.710Z,49.38
2017-01-29T07:43:03.276Z,49.29
2017-01-29T07:43:28.836Z,49.29
2017-01-29T07:43:54.415Z,49.58
2017-01-29T07:44:20.035Z,49.29
2017-01-29T07:44:45.631Z,49.58
2017-01-29T07:45:11.201Z,49.48
2017-01-29T07:45:36.767Z,49.96
2017-01-29T07:46:02.331Z,49.29
2017-01-29T07:46:27.900Z,49.29
2017-01-29T07:46:53.463Z,49.96
2017-01-29T07:47:19.037Z,49.68
2017-01-29T07:47:44.587Z,49.29
2017-01-29T07:48:10.229Z,49.1
2017-01-29T07:48:35.796Z,49.29
2017-01-29T07:49:01.359Z,49.19
2017-01-29T07:49:27.015Z,49.1
2017-01-29T07:49:52.591Z,49.68
2017-01-29T07:50:18.180Z,49.19
2017-01-29T07:50:43.832Z,49.48
2017-01-29T07:51:09.385Z,49.48
2017-01-29T07:51:34.934Z,49.38
2017-01-29T07:52:00.503Z,49.38
2017-01-29T07:52:26.189Z,49.48
2017-01-29T07:52:51.735Z,49.48
2017-01-29T07:53:17.297Z,49.58
2017-01-29T07:53:42.982Z,49.68
2017-01-29T07:54:08.553Z,49.48
2017-01-29T07:54:34.113Z,49.58
2017-01-29T07:54:59.818Z,49.58
2017-01-29T07:55:25.409Z,49.38
2017-01-29T07:55:50.985Z,49.48
2017-01-29T07:56:16.533Z,49.38
2017-01-29T07:56:42.251Z,49.48
2017-01-29T07:57:07.822Z,49.48
2017-01-29T07:57:33.404Z,49.68
2017-01-29T07:57:59.047Z,49.38
2017-01-29T07:58:24.625Z,49.68
2017-01-29T07:58:50.198Z,49.58
2017-01-29T07:59:15.779Z,49.48
2017-01-29T07:59:41.423Z,49.48
2017-01-29T08:00:07.014Z,49.48
2017-01-29T08:00:32.617Z,49.68
2017-01-29T08:00:58.276Z,49.68
2017-01-29T08:01:23.855Z,49.48
2017-01-29T08:01:49.429Z,49.48
2017-01-29T08:02:15.014Z,49.58
2017-01-29T08:02:40.659Z,49.58
2017-01-29T08:03:06.269Z,49.38
2017-01-29T08:03:31.845Z,49.58
2017-01-29T08:03:57.492Z,49.58
2017-01-29T08:04:23.045Z,49.38
2017-01-29T08:04:48.725Z,49.68
2017-01-29T08:05:14.516Z,49.77
2017-01-29T08:05:40.151Z,50.06
2017-01-29T08:06:05.723Z,50.15
2017-01-29T08:06:31.291Z,50.06
2017-01-29T08:06:56.909Z,50.06
2017-01-29T08:07:22.459Z,49.77
2017-01-29T08:07:48.004Z,49.96
2017-01-29T08:08:13.649Z,49.87
2017-01-29T08:08:39.244Z,50.35
2017-01-29T08:09:04.787Z,50.35
2017-01-29T08:09:30.373Z,50.15
2017-01-29T08:09:55.921Z,50.15
2017-01-29T08:10:21.544Z,50.15
2017-01-29T08:10:47.113Z,50.15
2017-01-29T08:11:12.713Z,50.15
2017-01-29T08:11:38.293Z,50.15
2017-01-29T08:12:03.891Z,50.25
2017-01-29T08:12:29.447Z,50.15
2017-01-29T08:12:55.273Z,50.15
2017-01-29T08:13:20.847Z,50.15
2017-01-29T08:13:46.435Z,50.35
2017-01-29T08:14:12.007Z,50.15
2017-01-29T08:14:37.640Z,50.06
2017-01-29T08:15:03.213Z,50.25
2017-01-29T08:15:28.772Z,50.15
2017-01-29T08:15:54.394Z,50.15
2017-01-29T08:16:19.989Z,50.15
2017-01-29T08:16:45.565Z,50.06
2017-01-29T08:17:11.131Z,50.25
2017-01-29T08:17:36.703Z,50.25
2017-01-29T08:18:02.364Z,50.15
2017-01-29T08:18:27.937Z,50.15
2017-01-29T08:18:53.500Z,50.25
2017-01-29T08:19:19.075Z,50.15
2017-01-29T08:19:44.638Z,50.35
2017-01-29T08:20:10.199Z,50.45
2017-01-29T08:20:35.777Z,50.25
2017-01-29T08:21:01.358Z,50.35
2017-01-29T08:21:26.911Z,50.25
2017-01-29T08:21:52.477Z,50.63
2017-01-29T08:22:18.048Z,50.45
2017-01-29T08:22:43.681Z,50.45
2017-01-29T08:23:09.273Z,50.25
2017-01-29T08:23:34.822Z,50.15
2017-01-29T08:24:00.608Z,50.35
2017-01-29T08:24:26.204Z,50.45
2017-01-29T08:24:51.731Z,50.25
2017-01-29T08:25:17.287Z,50.15
2017-01-29T08:25:42.912Z,50.45
2017-01-29T08:26:08.506Z,50.35
2017-01-29T08:26:34.086Z,50.35
2017-01-29T08:26:59.775Z,50.45
2017-01-29T08:27:25.353Z,50.45
2017-01-29T08:27:50.931Z,50.25
2017-01-29T08:28:16.493Z,50.54
2017-01-29T08:28:42.086Z,50.54
2017-01-29T08:29:07.688Z,50.25
2017-01-29T08:29:33.238Z,50.15
2017-01-29T08:29:58.854Z,50.54
2017-01-29T08:30:24.493Z,50.45
2017-01-29T08:30:50.060Z,50.15
2017-01-29T08:31:15.663Z,50.45
2017-01-29T08:31:41.309Z,50.25
2017-01-29T08:32:06.892Z,50.45
2017-01-29T08:32:32.451Z,50.45
2017-01-29T08:32:58.029Z,50.54
2017-01-29T08:33:23.599Z,50.54
2017-01-29T08:33:49.171Z,50.54
2017-01-29T08:34:14.821Z,50.83
2017-01-29T08:34:40.574Z,50.63
2017-01-29T08:35:06.163Z,50.73
2017-01-29T08:35:31.783Z,50.45
2017-01-29T08:35:57.387Z,50.83
2017-01-29T08:36:22.951Z,50.63
2017-01-29T08:36:48.511Z,50.83
2017-01-29T08:37:14.145Z,50.83
2017-01-29T08:37:39.725Z,50.73
2017-01-29T08:38:05.323Z,50.93
2017-01-29T08:38:31.011Z,50.93
2017-01-29T08:38:56.600Z,50.93
2017-01-29T08:39:22.159Z,50.93
2017-01-29T08:39:47.772Z,51.12
2017-01-29T08:40:13.351Z,51.21
2017-01-29T08:40:38.971Z,51.21
2017-01-29T08:41:04.523Z,51.12
2017-01-29T08:41:30.068Z,51.5
2017-01-29T08:41:55.897Z,51.6
2017-01-29T08:42:21.421Z,51.21
2017-01-29T08:42:46.997Z,51.7
2017-01-29T08:43:12.599Z,51.89
2017-01-29T08:43:38.155Z,51.89
2017-01-29T08:44:03.728Z,51.79
2017-01-29T08:44:29.391Z,51.89
2017-01-29T08:44:54.950Z,51.89
2017-01-29T08:45:20.548Z,51.79
2017-01-29T08:45:46.219Z,51.79
2017-01-29T08:46:11.794Z,51.89
2017-01-29T08:46:37.363Z,51.89
2017-01-29T08:47:02.935Z,51.89
2017-01-29T08:47:28.572Z,51.89
2017-01-29T08:47:54.125Z,51.5
2017-01-29T08:48:19.756Z,51.41
2017-01-29T08:48:45.322Z,51.6
2017-01-29T08:49:10.928Z,51.6
2017-01-29T08:49:36.601Z,51.41
2017-01-29T08:50:02.197Z,51.79
2017-01-29T08:50:27.761Z,51.89
2017-01-29T08:50:53.320Z,51.89
2017-01-29T08:51:18.899Z,51.89
2017-01-29T08:51:44.483Z,52.08
2017-01-29T08:52:10.040Z,51.79
2017-01-29T08:52:35.650Z,51.89
2017-01-29T08:53:01.350Z,51.89
2017-01-29T08:53:26.922Z,51.98
2017-01-29T08:53:52.478Z,51.6
2017-01-29T08:54:18.083Z,51.89
2017-01-29T08:54:43.662Z,51.6
2017-01-29T08:55:09.243Z,51.79
2017-01-29T08:55:34.879Z,51.79
2017-01-29T08:56:00.421Z,51.41
2017-01-29T08:56:26.035Z,51.41
2017-01-29T08:56:51.750Z,51.5
2017-01-29T08:57:17.340Z,51.41
2017-01-29T08:57:42.923Z,51.41
2017-01-29T08:58:08.504Z,51.5
2017-01-29T08:58:34.079Z,51.7
2017-01-29T08:58:59.693Z,51.79
2017-01-29T08:59:25.243Z,51.6
2017-01-29T08:59:51.044Z,51.6
2017-01-29T09:00:16.611Z,51.21
2017-01-29T09:00:42.202Z,51.6
2017-01-29T09:01:07.865Z,51.5
2017-01-29T09:01:33.422Z,51.12
2017-01-29T09:01:58.997Z,51.5
2017-01-29T09:02:24.589Z,51.5
2017-01-29T09:02:50.245Z,51.5
2017-01-29T09:03:15.880Z,51.5
2017-01-29T09:03:41.666Z,51.7
2017-01-29T09:04:07.243Z,51.79
2017-01-29T09:04:32.793Z,51.12
2017-01-29T09:04:58.475Z,51.12
2017-01-29T09:05:24.060Z,51.02
2017-01-29T09:05:49.631Z,51.21
2017-01-29T09:06:15.247Z,51.21
2017-01-29T09:06:40.841Z,51.21
2017-01-29T09:07:06.663Z,51.02
2017-01-29T09:07:32.279Z,50.83
2017-01-29T09:07:57.921Z,50.93
2017-01-29T09:08:23.549Z,50.93
2017-01-29T09:08:49.131Z,51.21
2017-01-29T09:09:14.771Z,51.02
2017-01-29T09:09:40.362Z,50.73
2017-01-29T09:10:05.963Z,50.66
2017-01-29T09:10:31.634Z,51.02
2017-01-29T09:10:57.310Z,50.73
2017-01-29T09:11:22.892Z,50.73
2017-01-29T09:11:48.495Z,50.83
2017-01-29T09:12:14.052Z,50.93
2017-01-29T09:12:39.655Z,50.54
2017-01-29T09:13:05.231Z,50.63
2017-01-29T09:13:30.800Z,50.93
2017-01-29T09:13:56.393Z,50.73
2017-01-29T09:14:22.150Z,50.83
2017-01-29T09:15:36.205Z,50.83
2017-01-29T09:16:01.736Z,50.73
2017-01-29T09:16:27.313Z,50.73
2017-01-29T09:16:52.866Z,50.83
2017-01-29T09:17:18.428Z,50.73
2017-01-29T09:17:44.098Z,50.73
2017-01-29T09:18:37.061Z,50.73
2017-01-29T09:19:02.611Z,50.83
2017-01-29T09:19:28.168Z,50.83
2017-01-29T09:19:53.738Z,50.83
2017-01-29T09:20:19.453Z,50.83
2017-01-29T09:20:45.018Z,50.63
2017-01-29T09:21:10.587Z,50.93
2017-01-29T09:21:36.209Z,50.73
2017-01-29T09:22:01.812Z,50.73
2017-01-29T09:22:27.387Z,50.54
2017-01-29T09:22:52.984Z,50.54
2017-01-29T09:23:18.611Z,50.54
2017-01-29T09:23:44.170Z,50.73
2017-01-29T09:24:09.760Z,50.63
2017-01-29T09:24:35.318Z,50.45
2017-01-29T09:25:01.986Z,50.73
2017-01-29T09:25:27.569Z,50.73
2017-01-29T09:25:53.126Z,50.73
2017-01-29T09:26:18.820Z,50.63
2017-01-29T09:26:44.397Z,50.06
2017-01-29T09:27:09.979Z,50.47
2017-01-29T09:27:35.555Z,50.45
2017-01-29T09:28:01.139Z,50.45
2017-01-29T09:28:26.678Z,50.15
2017-01-29T09:28:52.243Z,50.25
2017-01-29T09:29:17.908Z,50.18
2017-01-29T09:29:43.480Z,50.15
2017-01-29T09:30:09.023Z,50.09
2017-01-29T09:30:34.585Z,50.25
2017-01-29T09:31:00.137Z,50.37
2017-01-29T09:31:25.777Z,50.57
2017-01-29T09:31:51.379Z,50.45
2017-01-29T09:32:17.041Z,50.37
2017-01-29T09:32:42.582Z,49.89
2017-01-29T09:33:08.141Z,49.79
2017-01-29T09:33:33.824Z,49.89
2017-01-29T09:33:59.405Z,50.09
2017-01-29T09:34:24.968Z,50.15
2017-01-29T09:34:50.530Z,49.99
2017-01-29T09:35:16.080Z,49.99
2017-01-29T09:35:41.676Z,49.99
2017-01-29T09:36:07.255Z,49.99
2017-01-29T09:36:32.859Z,49.99
2017-01-29T09:36:58.441Z,49.99
2017-01-29T09:37:24.119Z,49.89
2017-01-29T09:37:49.753Z,50.09
2017-01-29T09:38:15.311Z,49.99
2017-01-29T09:38:40.887Z,49.89
2017-01-29T09:39:06.471Z,50.09
2017-01-29T09:39:32.071Z,50.27
2017-01-29T09:39:57.652Z,50.18
2017-01-29T09:40:23.285Z,50.37
2017-01-29T09:40:48.864Z,50.18
2017-01-29T09:41:57.522Z,50.18
2017-01-29T09:42:23.081Z,49.79
2017-01-29T09:42:48.773Z,50.18
2017-01-29T09:43:14.349Z,50.18
2017-01-29T09:43:39.910Z,50.18
2017-01-29T09:44:05.483Z,50.27
2017-01-29T09:44:31.095Z,50.18
2017-01-29T09:44:56.707Z,50.27
2017-01-29T09:45:22.255Z,50.18
2017-01-29T09:45:47.944Z,50.15
2017-01-29T09:46:13.531Z,50.18
2017-01-29T09:46:39.096Z,49.89
2017-01-29T09:47:04.653Z,49.6
2017-01-29T09:47:30.339Z,49.41
2017-01-29T09:47:55.904Z,49.6
2017-01-29T09:48:21.482Z,49.19
2017-01-29T09:48:47.144Z,49.32
2017-01-29T09:49:12.723Z,49.38
2017-01-29T09:49:38.302Z,49.6
2017-01-29T09:50:03.871Z,49.32
2017-01-29T09:50:29.542Z,49.32
2017-01-29T09:50:55.091Z,49.32
2017-01-29T09:51:20.663Z,49.12
2017-01-29T09:51:46.210Z,49.41
2017-01-29T09:52:11.756Z,49.6
2017-01-29T09:52:37.341Z,49.6
2017-01-29T09:53:02.891Z,49.41
2017-01-29T09:54:06.387Z,49.22
2017-01-29T09:54:32.007Z,49.22
2017-01-29T09:56:52.823Z,49.12
2017-01-29T09:57:50.938Z,49.32
2017-01-29T09:58:16.545Z,49.12
2017-01-29T09:58:42.310Z,49.02
2017-01-29T09:59:09.823Z,49.22
2017-01-29T09:59:35.381Z,49.32
2017-01-29T10:00:01.075Z,49.22
2017-01-29T10:00:26.667Z,49.22
2017-01-29T10:00:52.232Z,49.22
2017-01-29T10:01:17.821Z,49.02
2017-01-29T10:01:43.390Z,49.02
2017-01-29T10:02:08.941Z,49.32
2017-01-29T10:02:34.507Z,49.22
2017-01-29T10:03:00.086Z,49.02
2017-01-29T10:03:25.656Z,49.02
2017-01-29T10:03:51.220Z,49.02
2017-01-29T10:04:16.777Z,48.93
2017-01-29T10:04:42.335Z,48.93
2017-01-29T10:05:07.945Z,49.22
2017-01-29T10:05:33.530Z,49.22
2017-01-29T10:05:59.094Z,49.22
2017-01-29T10:06:24.675Z,49.12
2017-01-29T10:06:50.267Z,49.02
2017-01-29T10:07:15.824Z,49.02
2017-01-29T10:07:41.391Z,49.32
2017-01-29T10:08:06.956Z,49.12
2017-01-29T10:08:32.568Z,49.02
2017-01-29T10:08:58.275Z,49.51
2017-01-29T10:09:23.840Z,49.32
2017-01-29T10:09:49.403Z,49.32
2017-01-29T10:10:14.980Z,49.41
2017-01-29T10:10:40.541Z,49.12
2017-01-29T10:11:06.101Z,49.02
2017-01-29T10:11:31.661Z,49.12
2017-01-29T10:11:57.241Z,49.22
2017-01-29T10:12:22.906Z,49.51
2017-01-29T10:12:48.515Z,49.41
2017-01-29T10:13:14.081Z,49.41
2017-01-29T10:13:39.655Z,49.51
2017-01-29T10:14:05.237Z,49.41
2017-01-29T10:14:30.807Z,49.41
2017-01-29T10:14:56.391Z,49.32
2017-01-29T10:15:21.997Z,49.41
2017-01-29T10:15:47.608Z,49.32
2017-01-29T10:16:13.176Z,49.41
2017-01-29T10:16:38.770Z,49.51
2017-01-29T10:17:04.469Z,49.51
2017-01-29T10:17:30.049Z,49.12
2017-01-29T10:17:55.605Z,49.22
2017-01-29T10:18:21.185Z,49.32
2017-01-29T10:18:46.835Z,49.32
2017-01-29T10:19:12.378Z,49.22
2017-01-29T10:19:38.029Z,49.32
2017-01-29T10:20:03.668Z,49.41
2017-01-29T10:20:29.228Z,49.41
2017-01-29T10:20:54.797Z,49.6
2017-01-29T10:21:20.452Z,49.6
2017-01-29T10:21:46.041Z,49.32
2017-01-29T10:22:11.607Z,49.6
2017-01-29T10:22:37.268Z,49.22
2017-01-29T10:23:02.828Z,49.22
2017-01-29T10:23:28.437Z,49.41
2017-01-29T10:23:54.076Z,49.99
2017-01-29T10:24:19.647Z,49.6
2017-01-29T10:24:45.236Z,49.32
2017-01-29T10:25:10.788Z,49.32
2017-01-29T10:25:36.423Z,49.22
2017-01-29T10:26:02.023Z,49.7
2017-01-29T10:26:27.575Z,49.22
2017-01-29T10:26:53.152Z,49.22
2017-01-29T10:27:18.823Z,49.51
2017-01-29T10:27:44.394Z,49.6
2017-01-29T10:28:10.042Z,49.51
2017-01-29T10:28:35.667Z,49.41
2017-01-29T10:29:01.239Z,49.6
2017-01-29T10:29:26.843Z,50.18
2017-01-29T10:29:52.519Z,49.89
2017-01-29T10:30:18.071Z,49.89
2017-01-29T10:30:43.929Z,50.18
2017-01-29T10:31:09.501Z,49.89
2017-01-29T10:31:35.167Z,50.09
2017-01-29T10:32:00.743Z,50.09
2017-01-29T10:32:26.318Z,49.99
2017-01-29T10:32:51.939Z,49.99
2017-01-29T10:33:17.558Z,49.79
2017-01-29T10:33:43.132Z,50.09
2017-01-29T10:34:08.777Z,50.37
2017-01-29T10:34:34.355Z,50.09
2017-01-29T10:34:59.920Z,50.37
2017-01-29T10:35:26.117Z,50.47
2017-01-29T10:35:51.700Z,50.18
2017-01-29T10:36:17.259Z,50.37
2017-01-29T10:36:42.823Z,50.66